Time;durP1;ratioP1;P1;durP2;ratioP2;P2;SDS_P1;SDS_P2;PMS_P1;PMS_P2;Temp;Humidity;BMP_temperature;BMP_pressure;BME280_temperature;BME280_humidity;BME280_pressure;Samples;Min_cycle;Max_cycle;Signal;HPM_P1;HPM_P2
2022/11/20 00:00:52;;;;;;;33.28;15.68;;;;;;;1.50;88.13;100994.22;4984611;28;20054;-78
2022/11/20 00:03:18;;;;;;;31.83;15.82;;;;;;;1.41;88.94;100992.22;4986509;28;20034;-78
2022/11/20 00:05:44;;;;;;;31.15;14.55;;;;;;;1.42;89.27;100991.31;4983685;28;20432;-79
2022/11/20 00:08:10;;;;;;;30.95;15.65;;;;;;;1.42;89.03;100994.69;5001841;28;20061;-78
2022/11/20 00:10:41;;;;;;;31.58;15.00;;;;;;;1.45;89.08;100997.06;4988712;28;20058;-78
2022/11/20 00:13:07;;;;;;;36.47;16.05;;;;;;;1.49;88.40;101002.81;5000590;28;20121;-78
2022/11/20 00:15:33;;;;;;;29.23;14.85;;;;;;;1.48;88.84;100996.88;4985178;28;20049;-78
2022/11/20 00:17:59;;;;;;;31.65;15.38;;;;;;;1.48;89.07;100990.94;4986061;28;20026;-78
2022/11/20 00:20:24;;;;;;;30.75;14.75;;;;;;;1.50;89.36;100994.22;4972035;28;20054;-78
2022/11/20 00:22:51;;;;;;;30.42;14.98;;;;;;;1.52;89.52;100997.50;4991532;28;20089;-78
2022/11/20 00:25:16;;;;;;;30.60;14.27;;;;;;;1.57;89.80;100995.50;4970516;28;20040;-79
2022/11/20 00:27:42;;;;;;;31.23;14.85;;;;;;;1.58;89.87;100999.69;4984681;28;20050;-78
2022/11/20 00:30:13;;;;;;;31.55;15.23;;;;;;;1.59;90.24;100990.28;4998800;28;20038;-79
2022/11/20 00:32:39;;;;;;;32.88;15.98;;;;;;;1.63;90.67;100990.00;4986172;28;20038;-78
2022/11/20 00:35:06;;;;;;;30.50;15.52;;;;;;;1.65;91.06;100997.59;4983786;28;20037;-78
2022/11/20 00:37:31;;;;;;;34.78;17.15;;;;;;;1.60;91.33;100985.09;4980919;28;20045;-79
2022/11/20 00:39:57;;;;;;;34.00;17.45;;;;;;;1.61;91.58;100988.47;4997184;28;20030;-79
2022/11/20 00:42:22;;;;;;;33.30;17.08;;;;;;;1.58;91.53;100980.97;4994659;28;20041;-78
2022/11/20 00:44:48;;;;;;;35.78;17.90;;;;;;;1.58;91.96;100974.13;4966517;28;20042;-78
2022/11/20 00:47:13;;;;;;;38.38;18.95;;;;;;;1.53;91.55;100971.84;4982093;28;20536;-79
2022/11/20 00:49:39;;;;;;;38.75;17.10;;;;;;;1.57;91.17;100974.22;4981034;28;20035;-79
2022/11/20 00:52:04;;;;;;;35.53;17.52;;;;;;;1.55;90.84;100971.75;4976297;28;20031;-80
2022/11/20 00:54:30;;;;;;;33.35;16.42;;;;;;;1.53;90.84;100974.41;4985740;28;20030;-78
2022/11/20 00:56:56;;;;;;;37.85;17.60;;;;;;;1.51;91.45;100980.53;4984751;28;20045;-78
2022/11/20 00:59:21;;;;;;;34.38;17.05;;;;;;;1.52;91.35;100977.88;4983103;28;20041;-79
2022/11/20 01:01:47;;;;;;;32.88;17.08;;;;;;;1.48;91.42;100978.16;4982868;28;20051;-78
2022/11/20 01:04:12;;;;;;;38.05;19.45;;;;;;;1.47;91.70;100967.13;4969374;28;20165;-78
2022/11/20 01:06:39;;;;;;;32.88;17.60;;;;;;;1.50;91.66;100969.47;4998858;28;20054;-78
2022/11/20 01:09:07;;;;;;;35.78;17.42;;;;;;;1.51;92.13;100966.00;4986407;28;20026;-78
2022/11/20 01:11:37;;;;;;;32.35;16.35;;;;;;;1.59;92.55;100965.53;4976994;28;20082;-79
2022/11/20 01:14:04;;;;;;;34.17;16.40;;;;;;;1.54;92.57;100972.66;4998992;28;20026;-78
2022/11/20 01:16:32;;;;;;;33.30;16.60;;;;;;;1.50;92.51;100964.34;4983982;28;20030;-78
2022/11/20 01:19:00;;;;;;;33.15;17.27;;;;;;;1.50;92.00;100964.34;5002500;28;20042;-78
2022/11/20 01:21:30;;;;;;;37.90;16.90;;;;;;;1.41;91.81;100962.34;4987178;28;20046;-79
2022/11/20 01:23:57;;;;;;;41.55;16.45;;;;;;;1.41;91.54;100957.25;5003416;28;20042;-78
2022/11/20 01:26:28;;;;;;;38.58;17.02;;;;;;;1.43;91.87;100952.03;4990513;28;20516;-78
2022/11/20 01:28:54;;;;;;;36.67;17.83;;;;;;;1.34;91.80;100946.59;4984721;28;20053;-78
2022/11/20 01:31:32;;;;;;;36.30;16.92;;;;;;;1.36;91.65;100936.28;5001133;28;20046;-79
2022/11/20 01:34:00;;;;;;;33.55;16.63;;;;;;;1.30;92.32;100936.63;5001602;28;20488;-78
2022/11/20 01:36:28;;;;;;;34.08;17.00;;;;;;;1.29;92.47;100937.56;5002295;28;20512;-78
2022/11/20 01:38:55;;;;;;;34.65;16.00;;;;;;;1.29;92.82;100935.81;4988316;28;20069;-78
2022/11/20 01:44:06;;;;;;;35.17;16.52;;;;;;;1.34;92.68;100936.38;4991571;28;20040;-79
2022/11/20 01:46:38;;;;;;;33.90;16.55;;;;;;;1.37;92.73;100937.91;4987120;28;20050;-79
2022/11/20 01:49:15;;;;;;;35.45;16.30;;;;;;;1.34;92.69;100931.25;4970389;28;20049;-78
2022/11/20 01:51:56;;;;;;;35.45;16.40;;;;;;;1.34;92.70;100933.00;4973447;28;20042;-78
2022/11/20 01:54:28;;;;;;;34.92;16.38;;;;;;;1.30;92.67;100936.63;4988345;28;20034;-78
2022/11/20 01:56:57;;;;;;;31.52;15.70;;;;;;;1.27;92.76;100940.19;4983708;28;20141;-78
2022/11/20 01:59:25;;;;;;;34.13;16.95;;;;;;;1.25;92.84;100936.09;4984325;28;20037;-80
2022/11/20 02:01:52;;;;;;;35.45;16.38;;;;;;;1.21;92.86;100934.66;5004115;28;20038;-78
2022/11/20 02:04:18;;;;;;;31.50;15.18;;;;;;;1.21;92.99;100940.56;4998679;28;20046;-78
2022/11/20 02:06:49;;;;;;;31.42;16.05;;;;;;;1.11;92.55;100937.75;4988680;28;20121;-78
2022/11/20 02:09:15;;;;;;;40.70;17.25;;;;;;;1.02;92.48;100930.63;4971769;28;20037;-80
2022/11/20 02:11:41;;;;;;;38.28;17.90;;;;;;;0.97;92.78;100941.09;4989685;28;20053;-79
2022/11/20 02:14:07;;;;;;;37.15;17.52;;;;;;;0.95;93.15;100934.47;4986845;28;20038;-78
2022/11/20 02:16:51;;;;;;;34.83;17.02;;;;;;;0.92;92.98;100932.06;5000559;28;20076;-78
2022/11/20 02:19:26;;;;;;;30.42;15.27;;;;;;;0.86;92.85;100943.47;4970053;28;20121;-78
2022/11/20 02:22:13;;;;;;;33.70;16.10;;;;;;;0.83;92.82;100932.63;4967391;28;20042;-78
2022/11/20 02:24:39;;;;;;;34.97;17.27;;;;;;;0.77;92.98;100931.25;4983976;28;20039;-78
2022/11/20 02:27:09;;;;;;;30.88;16.73;;;;;;;0.73;92.93;100929.78;4987877;28;20097;-79
2022/11/20 02:29:55;;;;;;;30.88;15.68;;;;;;;0.67;93.07;100928.41;4981728;28;20451;-79
2022/11/20 02:32:32;;;;;;;30.10;15.68;;;;;;;0.63;93.15;100931.25;4976475;28;20097;-78
2022/11/20 02:35:07;;;;;;;30.58;14.90;;;;;;;0.62;93.18;100927.03;4970834;28;20031;-78
2022/11/20 02:37:36;;;;;;;32.03;15.82;;;;;;;0.57;92.80;100928.13;4968171;28;20038;-78
2022/11/20 02:40:02;;;;;;;30.30;15.77;;;;;;;0.52;93.18;100926.75;5003757;28;20030;-78
2022/11/20 02:42:27;;;;;;;32.40;15.52;;;;;;;0.51;93.25;100925.09;4984848;28;20054;-79
2022/11/20 02:44:53;;;;;;;35.00;16.10;;;;;;;0.41;93.08;100924.78;4984795;28;20034;-78
2022/11/20 02:47:18;;;;;;;33.50;16.33;;;;;;;0.29;93.28;100931.41;4984256;28;20052;-78
2022/11/20 02:49:44;;;;;;;33.92;15.38;;;;;;;0.23;93.31;100929.22;4987106;28;20041;-78
2022/11/20 02:52:09;;;;;;;34.10;16.42;;;;;;;0.23;93.93;100928.38;4986764;28;20045;-78
2022/11/20 02:54:35;;;;;;;30.17;15.00;;;;;;;0.22;93.98;100922.47;4971767;28;20500;-77
2022/11/20 02:57:00;;;;;;;33.33;16.27;;;;;;;0.21;93.99;100931.03;4985347;28;20041;-78
2022/11/20 02:59:26;;;;;;;32.60;16.38;;;;;;;0.16;93.68;100928.72;4983861;28;20421;-78
2022/11/20 03:01:51;;;;;;;30.75;16.42;;;;;;;0.10;93.97;100923.97;4973090;28;20394;-79
2022/11/20 03:04:17;;;;;;;33.25;16.25;;;;;;;0.06;94.14;100927.59;4992708;28;20041;-78
2022/11/20 03:06:42;;;;;;;31.52;15.30;;;;;;;0.00;93.95;100930.50;4993926;28;20062;-77
2022/11/20 03:09:08;;;;;;;33.88;15.13;;;;;;;-0.03;94.27;100923.81;4999951;28;20049;-78
2022/11/20 03:11:34;;;;;;;30.08;15.40;;;;;;;-0.03;93.96;100923.81;4981508;28;20148;-79
2022/11/20 03:14:04;;;;;;;33.20;16.05;;;;;;;-0.07;94.04;100932.56;4982473;28;20393;-78
2022/11/20 03:16:30;;;;;;;35.38;15.68;;;;;;;-0.11;94.22;100931.09;4998443;28;20381;-78
2022/11/20 03:18:58;;;;;;;32.95;15.95;;;;;;;-0.17;94.49;100933.97;4979410;28;20034;-78
2022/11/20 03:21:27;;;;;;;31.08;16.38;;;;;;;-0.21;94.30;100927.38;4985071;28;20042;-78
2022/11/20 03:23:53;;;;;;;39.15;18.45;;;;;;;-0.26;94.50;100927.63;4999067;28;20132;-78
2022/11/20 03:26:22;;;;;;;33.90;15.48;;;;;;;-0.32;94.61;100934.78;5000243;28;20050;-77
2022/11/20 03:28:50;;;;;;;33.40;16.90;;;;;;;-0.37;95.03;100931.69;4983293;28;20038;-77
2022/11/20 03:31:17;;;;;;;37.50;17.13;;;;;;;-0.44;95.30;100924.34;4985473;28;20085;-77
2022/11/20 03:33:43;;;;;;;35.47;17.10;;;;;;;-0.49;95.32;100933.13;5002531;28;20030;-77
2022/11/20 03:36:12;;;;;;;37.40;17.25;;;;;;;-0.53;95.56;100941.84;4986099;28;20050;-77
2022/11/20 03:38:38;;;;;;;35.20;16.92;;;;;;;-0.55;95.99;100936.81;5001470;28;20053;-77
2022/11/20 03:41:09;;;;;;;38.45;18.08;;;;;;;-0.57;96.03;100938.63;5000746;28;20034;-77
2022/11/20 03:43:35;;;;;;;39.97;19.40;;;;;;;-0.56;96.31;100939.47;4985796;28;20120;-77
2022/11/20 03:46:01;;;;;;;43.13;19.25;;;;;;;-0.57;96.95;100941.19;4984404;28;20503;-78
2022/11/20 03:48:27;;;;;;;47.80;19.65;;;;;;;-0.55;97.34;100936.00;4982925;28;20046;-77
2022/11/20 03:51:09;;;;;;;45.53;21.98;;;;;;;-0.54;97.13;100923.19;4968854;28;20054;-77
2022/11/20 03:53:34;;;;;;;48.95;22.05;;;;;;;-0.50;97.90;100928.97;4998300;28;20481;-78
2022/11/20 03:56:00;;;;;;;48.08;22.35;;;;;;;-0.48;97.74;100920.31;4981654;28;20065;-77
2022/11/20 03:58:26;;;;;;;48.88;22.45;;;;;;;-0.46;98.28;100915.97;4981315;28;20428;-77
2022/11/20 04:00:51;;;;;;;48.00;21.70;;;;;;;-0.43;98.80;100917.53;4967858;28;20042;-77
2022/11/20 04:03:20;;;;;;;45.00;21.63;;;;;;;-0.39;98.76;100916.47;4985650;28;20034;-78
2022/11/20 04:05:45;;;;;;;50.20;21.95;;;;;;;-0.38;98.85;100917.28;4981684;28;20054;-77
2022/11/20 04:08:14;;;;;;;47.47;22.13;;;;;;;-0.37;99.02;100919.75;5000136;28;20038;-78
2022/11/20 04:10:39;;;;;;;45.70;20.98;;;;;;;-0.35;99.39;100912.03;4984113;28;20184;-77
2022/11/20 04:13:04;;;;;;;43.30;20.20;;;;;;;-0.34;99.17;100914.50;4982756;28;20034;-77
2022/11/20 04:15:30;;;;;;;45.17;20.95;;;;;;;-0.33;99.38;100910.22;5000675;28;20580;-77
2022/11/20 04:17:57;;;;;;;45.15;21.45;;;;;;;-0.33;99.47;100900.84;4982216;28;20053;-77
2022/11/20 04:20:22;;;;;;;44.47;22.27;;;;;;;-0.33;99.88;100907.66;4968475;28;20030;-78
2022/11/20 04:22:48;;;;;;;52.40;21.80;;;;;;;-0.33;99.63;100905.94;4983980;28;20232;-79
2022/11/20 04:25:13;;;;;;;47.88;20.80;;;;;;;-0.30;100.00;100902.38;4984933;28;20841;-77
2022/11/20 04:27:42;;;;;;;47.25;21.40;;;;;;;-0.27;99.85;100899.69;4980765;28;20117;-78
2022/11/20 04:30:08;;;;;;;44.33;20.05;;;;;;;-0.24;100.00;100904.63;4981070;28;20035;-77
2022/11/20 04:32:33;;;;;;;38.22;20.25;;;;;;;-0.23;100.00;100906.25;4980544;28;20409;-78
2022/11/20 04:35:02;;;;;;;44.85;20.88;;;;;;;-0.23;99.89;100911.34;4982832;28;20393;-78
2022/11/20 04:37:27;;;;;;;38.70;20.27;;;;;;;-0.22;99.92;100902.81;4980540;28;20046;-77
2022/11/20 04:39:53;;;;;;;45.67;20.92;;;;;;;-0.18;99.75;100909.38;4982711;28;20077;-77
2022/11/20 04:42:30;;;;;;;42.70;20.70;;;;;;;-0.17;100.00;100905.09;4962734;28;20635;-77
2022/11/20 04:44:57;;;;;;;44.60;19.15;;;;;;;-0.15;99.69;100905.81;4983604;28;20038;-77
2022/11/20 04:47:22;;;;;;;39.10;20.02;;;;;;;-0.15;99.53;100898.19;4996542;28;20042;-77
2022/11/20 04:49:48;;;;;;;50.78;21.73;;;;;;;-0.14;99.59;100894.75;4967956;28;20037;-78
2022/11/20 04:52:13;;;;;;;42.47;20.60;;;;;;;-0.12;99.38;100893.75;4988650;28;20050;-77
2022/11/20 04:54:39;;;;;;;42.67;19.75;;;;;;;-0.14;99.49;100897.28;4986107;28;20058;-77
2022/11/20 04:57:04;;;;;;;44.97;19.88;;;;;;;-0.11;99.71;100897.13;5003231;28;20038;-77
2022/11/20 04:59:30;;;;;;;42.65;19.80;;;;;;;-0.12;99.94;100905.66;4988091;28;20481;-78
2022/11/20 05:01:55;;;;;;;44.80;21.52;;;;;;;-0.08;99.45;100904.59;4988747;28;20038;-78
2022/11/20 05:04:20;;;;;;;40.35;19.08;;;;;;;-0.12;98.91;100898.03;4989368;28;20428;-78
2022/11/20 05:06:46;;;;;;;44.17;21.77;;;;;;;-0.14;99.57;100898.09;4988641;28;20041;-78
2022/11/20 05:09:12;;;;;;;44.30;20.92;;;;;;;-0.17;99.44;100894.91;4991551;28;20407;-78
2022/11/20 05:11:38;;;;;;;39.78;20.50;;;;;;;-0.17;99.29;100898.28;4972941;28;20065;-79
2022/11/20 05:14:03;;;;;;;40.78;19.85;;;;;;;-0.14;99.22;100904.94;5004289;28;20031;-77
2022/11/20 05:16:29;;;;;;;41.30;19.23;;;;;;;-0.12;99.32;100898.84;4989655;28;20544;-77
2022/11/20 05:18:55;;;;;;;37.28;18.23;;;;;;;-0.07;100.00;100896.06;4990311;28;20034;-78
2022/11/20 05:21:21;;;;;;;38.92;19.35;;;;;;;-0.04;100.00;100894.16;5005879;28;20046;-78
2022/11/20 05:23:46;;;;;;;51.95;20.77;;;;;;;-0.01;100.00;100895.69;4988286;28;20461;-79
2022/11/20 05:26:21;;;;;;;44.05;20.52;;;;;;;0.02;100.00;100898.09;4999967;28;20046;-78
2022/11/20 05:28:47;;;;;;;37.20;18.65;;;;;;;0.04;100.00;100895.44;4988739;28;20039;-78
2022/11/20 05:31:15;;;;;;;45.38;20.67;;;;;;;0.06;100.00;100896.16;5033024;22;20065;-78
2022/11/20 05:33:43;;;;;;;38.05;19.23;;;;;;;0.05;100.00;100897.09;5025018;28;20037;-80
2022/11/20 05:36:09;;;;;;;43.75;19.15;;;;;;;0.06;100.00;100897.00;5006829;28;20033;-78
2022/11/20 05:38:34;;;;;;;43.20;20.55;;;;;;;0.06;100.00;100891.91;5004762;28;20029;-79
2022/11/20 05:41:19;;;;;;;40.85;19.33;;;;;;;0.08;100.00;100894.38;5005380;28;20570;-79
2022/11/20 05:43:46;;;;;;;39.72;20.00;;;;;;;0.09;100.00;100899.38;5015429;22;20050;-75
2022/11/20 05:46:14;;;;;;;39.72;19.75;;;;;;;0.09;100.00;100901.91;4999418;28;20045;-75
2022/11/20 05:48:41;;;;;;;38.85;18.85;;;;;;;0.09;100.00;100893.47;4997667;28;20045;-74
2022/11/20 05:51:12;;;;;;;42.83;19.48;;;;;;;0.04;100.00;100891.19;4993474;28;20041;-75
2022/11/20 05:53:38;;;;;;;34.53;17.73;;;;;;;0.04;100.00;100886.06;4979216;28;20126;-75
2022/11/20 05:56:12;;;;;;;42.83;18.83;;;;;;;-0.01;100.00;100886.31;5003677;28;20042;-74
2022/11/20 05:58:38;;;;;;;40.33;19.55;;;;;;;-0.08;100.00;100884.19;4984978;28;20062;-76
2022/11/20 06:01:09;;;;;;;46.08;20.02;;;;;;;-0.02;99.58;100884.69;5002924;28;20042;-74
2022/11/20 06:03:39;;;;;;;45.33;19.77;;;;;;;-0.04;99.69;100888.22;4981657;28;20398;-75
2022/11/20 06:06:05;;;;;;;37.78;17.98;;;;;;;-0.03;99.59;100888.13;4998861;28;20515;-75
2022/11/20 06:08:32;;;;;;;40.08;18.58;;;;;;;0.05;100.00;100882.59;4991103;28;20047;-75
2022/11/20 06:10:58;;;;;;;40.38;20.38;;;;;;;0.01;99.53;100877.78;4984884;28;20088;-75
2022/11/20 06:13:24;;;;;;;46.17;19.80;;;;;;;0.00;99.61;100876.97;4992588;28;20030;-75
2022/11/20 06:15:51;;;;;;;37.58;19.25;;;;;;;-0.03;99.69;100874.56;4984241;28;20550;-75
2022/11/20 06:18:17;;;;;;;38.40;18.35;;;;;;;-0.02;99.98;100874.50;4970083;28;20527;-75
2022/11/20 06:20:42;;;;;;;38.03;18.05;;;;;;;-0.03;100.00;100883.03;4967589;28;20061;-75
2022/11/20 06:23:08;;;;;;;38.08;17.67;;;;;;;-0.01;100.00;100885.50;4986138;28;20040;-74
2022/11/20 06:25:37;;;;;;;38.13;18.23;;;;;;;0.00;100.00;100879.50;4984897;28;20055;-74
2022/11/20 06:28:03;;;;;;;38.30;17.20;;;;;;;-0.01;100.00;100888.06;4984374;28;20019;-74
2022/11/20 06:30:28;;;;;;;39.88;18.17;;;;;;;0.00;100.00;100892.25;4997333;28;21040;-74
2022/11/20 06:32:54;;;;;;;36.53;17.60;;;;;;;0.01;100.00;100886.25;4997725;28;20057;-75
2022/11/20 06:35:19;;;;;;;36.40;17.88;;;;;;;-0.01;100.00;100898.25;4985050;28;20057;-75
2022/11/20 06:37:45;;;;;;;39.22;18.73;;;;;;;-0.02;100.00;100897.44;4986082;28;20039;-75
2022/11/20 06:40:13;;;;;;;43.90;19.77;;;;;;;-0.06;100.00;100898.53;4981234;28;20039;-75
2022/11/20 06:42:39;;;;;;;40.40;18.27;;;;;;;-0.08;100.00;100900.31;4999768;28;20731;-75
2022/11/20 06:45:04;;;;;;;36.55;18.23;;;;;;;-0.07;100.00;100907.06;4983396;28;20031;-74
2022/11/20 06:47:30;;;;;;;36.40;17.23;;;;;;;-0.07;99.60;100908.78;4980120;28;20169;-75
2022/11/20 06:49:55;;;;;;;35.58;17.80;;;;;;;-0.09;100.00;100902.97;5001293;28;20038;-75
2022/11/20 06:52:21;;;;;;;37.03;17.73;;;;;;;-0.13;99.84;100904.84;5002453;28;20048;-75
2022/11/20 06:54:46;;;;;;;35.63;18.23;;;;;;;-0.17;100.00;100910.19;4971113;28;20053;-74
2022/11/20 06:57:12;;;;;;;36.80;18.52;;;;;;;-0.22;99.82;100910.47;4978755;28;20058;-74
2022/11/20 06:59:37;;;;;;;33.38;16.33;;;;;;;-0.24;100.00;100917.38;4986322;28;20042;-75
2022/11/20 07:02:03;;;;;;;37.67;18.98;;;;;;;-0.25;100.00;100925.91;4980694;28;20046;-74
2022/11/20 07:04:28;;;;;;;36.33;17.30;;;;;;;-0.28;100.00;100931.19;4983608;28;20046;-74
2022/11/20 07:06:54;;;;;;;40.15;18.95;;;;;;;-0.28;100.00;100933.72;4984654;28;20370;-75
2022/11/20 07:09:19;;;;;;;40.72;19.30;;;;;;;-0.30;100.00;100933.81;4978354;28;20034;-74
2022/11/20 07:11:44;;;;;;;40.90;18.58;;;;;;;-0.28;100.00;100933.72;4968076;28;20086;-75
2022/11/20 07:14:10;;;;;;;36.92;18.05;;;;;;;-0.28;100.00;100929.44;4984431;28;20034;-75
2022/11/20 07:16:35;;;;;;;42.67;18.90;;;;;;;-0.26;100.00;100930.19;4997551;28;20038;-75
2022/11/20 07:19:01;;;;;;;40.63;20.15;;;;;;;-0.23;100.00;100929.19;4983072;28;20034;-75
2022/11/20 07:21:26;;;;;;;40.45;19.27;;;;;;;-0.21;100.00;100925.66;4974199;28;20042;-75
2022/11/20 07:23:52;;;;;;;37.78;19.33;;;;;;;-0.18;100.00;100932.31;4969880;28;20030;-75
2022/11/20 07:26:17;;;;;;;41.58;19.55;;;;;;;-0.14;100.00;100931.25;4983180;28;20066;-75
2022/11/20 07:28:46;;;;;;;50.75;23.15;;;;;;;-0.09;100.00;100924.16;4985319;28;20057;-75
2022/11/20 07:31:12;;;;;;;45.60;21.92;;;;;;;-0.14;100.00;100915.13;4983741;28;20481;-75
2022/11/20 07:33:38;;;;;;;46.67;21.75;;;;;;;-0.12;100.00;100913.31;4983582;28;20038;-75
2022/11/20 07:36:04;;;;;;;47.10;23.77;;;;;;;-0.12;100.00;100918.41;4983701;28;20100;-75
2022/11/20 07:38:30;;;;;;;41.53;19.50;;;;;;;-0.09;100.00;100913.97;4985394;28;20404;-74
2022/11/20 07:41:01;;;;;;;50.20;23.35;;;;;;;-0.07;100.00;100912.16;4977116;28;20051;-74
2022/11/20 07:43:27;;;;;;;45.35;21.35;;;;;;;-0.07;100.00;100913.91;4982894;28;20101;-75
2022/11/20 07:45:55;;;;;;;48.50;21.50;;;;;;;-0.04;100.00;100913.72;4982277;28;20050;-74
2022/11/20 07:48:20;;;;;;;52.05;22.98;;;;;;;0.01;100.00;100905.81;4997167;28;20433;-75
2022/11/20 07:50:46;;;;;;;50.70;24.20;;;;;;;0.05;100.00;100903.00;4980366;28;20057;-76
2022/11/20 07:53:13;;;;;;;60.05;26.48;;;;;;;0.11;100.00;100902.66;4998295;28;20084;-75
2022/11/20 07:55:39;;;;;;;56.60;24.50;;;;;;;0.14;100.00;100901.69;4985202;28;20054;-75
2022/11/20 07:58:05;;;;;;;56.03;23.83;;;;;;;0.17;100.00;100898.94;4987252;28;20488;-75
2022/11/20 08:00:31;;;;;;;53.65;25.42;;;;;;;0.20;100.00;100908.97;4981219;28;20541;-75
2022/11/20 08:02:56;;;;;;;57.60;27.90;;;;;;;0.22;100.00;100898.69;4990146;28;20030;-75
2022/11/20 08:05:22;;;;;;;75.53;32.40;;;;;;;0.27;100.00;100901.81;4990412;28;20022;-74
2022/11/20 08:07:47;;;;;;;58.92;27.92;;;;;;;0.29;100.00;100900.81;4967417;28;20034;-75
2022/11/20 08:10:15;;;;;;;53.03;24.10;;;;;;;0.33;100.00;100904.00;4971868;28;20049;-75
2022/11/20 08:15:31;;;;;;;75.07;33.15;;;;;;;0.38;100.00;100899.47;4985223;28;20050;-75
2022/11/20 08:18:08;;;;;;;90.82;37.00;;;;;;;0.47;100.00;100900.66;4989444;28;20528;-75
2022/11/20 08:20:35;;;;;;;110.40;45.95;;;;;;;0.63;100.00;100901.41;4981873;28;20043;-75
2022/11/20 08:23:02;;;;;;;82.63;38.17;;;;;;;0.65;100.00;100907.25;5001760;28;20084;-75
2022/11/20 08:25:32;;;;;;;117.07;40.25;;;;;;;0.68;100.00;100896.03;4976839;28;20134;-78
2022/11/20 08:28:01;;;;;;;78.25;31.17;;;;;;;0.71;100.00;100899.22;4984777;28;20141;-75
2022/11/20 08:30:27;;;;;;;54.72;25.27;;;;;;;0.73;100.00;100891.50;4983900;28;20042;-75
2022/11/20 08:32:54;;;;;;;155.00;52.85;;;;;;;0.81;100.00;100896.13;4980040;28;20034;-75
2022/11/20 08:35:20;;;;;;;101.60;36.13;;;;;;;0.87;100.00;100888.94;4982361;28;20057;-75
2022/11/20 08:37:49;;;;;;;61.55;27.13;;;;;;;0.92;100.00;100894.63;4985083;28;20026;-75
2022/11/20 08:40:15;;;;;;;51.53;23.63;;;;;;;0.97;100.00;100897.69;4979723;28;20038;-76
2022/11/20 08:42:53;;;;;;;245.63;75.75;;;;;;;1.06;100.00;100893.78;4986591;28;20038;-74
2022/11/20 08:45:19;;;;;;;260.58;78.80;;;;;;;1.06;100.00;100905.75;4979774;28;20129;-75
2022/11/20 08:47:45;;;;;;;116.15;40.35;;;;;;;1.03;100.00;100899.06;4988620;28;20030;-76
2022/11/20 08:50:13;;;;;;;80.75;31.85;;;;;;;1.05;100.00;100904.91;4979312;28;20185;-75
2022/11/20 08:52:39;;;;;;;75.30;29.85;;;;;;;1.10;100.00;100909.75;4978605;28;20034;-75
2022/11/20 08:55:06;;;;;;;54.15;25.55;;;;;;;1.20;100.00;100910.00;4978369;28;20481;-75
2022/11/20 08:57:33;;;;;;;51.03;23.80;;;;;;;1.19;100.00;100898.97;4982296;28;20038;-76
2022/11/20 08:59:58;;;;;;;44.85;22.50;;;;;;;1.22;100.00;100896.22;4981496;28;20161;-75
2022/11/20 09:02:27;;;;;;;50.47;22.88;;;;;;;1.32;100.00;100893.94;4983139;28;20134;-75
2022/11/20 09:04:53;;;;;;;52.47;22.25;;;;;;;1.44;100.00;100892.38;4980569;28;20110;-76
2022/11/20 09:07:19;;;;;;;49.75;22.17;;;;;;;1.52;100.00;100895.25;4996438;28;20038;-75
2022/11/20 09:09:45;;;;;;;56.88;23.05;;;;;;;1.64;100.00;100896.22;4983640;28;20058;-75
2022/11/20 09:12:10;;;;;;;59.45;24.60;;;;;;;1.73;100.00;100888.81;4981372;28;20038;-76
2022/11/20 09:14:36;;;;;;;72.28;24.50;;;;;;;1.78;100.00;100885.16;4982980;28;20705;-75
2022/11/20 09:17:01;;;;;;;85.78;28.35;;;;;;;1.89;100.00;100882.72;4984477;28;20490;-76
2022/11/20 09:19:27;;;;;;;81.63;26.10;;;;;;;1.80;100.00;100885.88;4970102;28;20049;-76
2022/11/20 09:21:52;;;;;;;69.65;23.67;;;;;;;1.69;100.00;100884.78;4981849;28;20046;-76
2022/11/20 09:24:18;;;;;;;79.65;26.73;;;;;;;1.74;100.00;100875.09;4984072;28;20057;-75
2022/11/20 09:26:44;;;;;;;69.20;25.80;;;;;;;1.75;100.00;100875.91;4983065;28;20050;-76
2022/11/20 09:29:09;;;;;;;72.70;24.90;;;;;;;1.77;100.00;100875.81;5000352;28;20465;-75
2022/11/20 09:31:35;;;;;;;74.40;27.17;;;;;;;1.78;100.00;100874.94;4970493;28;20042;-76
2022/11/20 09:34:00;;;;;;;80.47;26.77;;;;;;;1.88;100.00;100888.75;4996020;28;20435;-75
2022/11/20 09:36:26;;;;;;;74.22;26.73;;;;;;;1.89;100.00;100868.19;4994930;28;20047;-75
2022/11/20 09:38:52;;;;;;;77.30;26.65;;;;;;;1.88;100.00;100878.53;4984510;28;20793;-76
2022/11/20 09:41:39;;;;;;;70.90;27.33;;;;;;;1.92;100.00;100875.69;4993801;28;20546;-75
2022/11/20 09:44:20;;;;;;;80.82;26.88;;;;;;;1.98;100.00;100881.31;4988049;28;20042;-75
2022/11/20 09:47:04;;;;;;;83.43;31.63;;;;;;;2.08;100.00;100878.06;4965540;28;20148;-75
2022/11/20 09:49:51;;;;;;;80.80;28.00;;;;;;;2.08;100.00;100875.50;4996788;28;20066;-75
2022/11/20 09:52:45;;;;;;;69.68;24.33;;;;;;;2.19;100.00;100867.16;4981112;28;20097;-76
2022/11/20 09:55:13;;;;;;;81.10;27.83;;;;;;;2.12;100.00;100869.28;4981063;28;20039;-75
2022/11/20 09:57:45;;;;;;;99.18;31.30;;;;;;;2.17;100.00;100875.81;4984856;28;20062;-76
2022/11/20 10:00:14;;;;;;;98.80;32.20;;;;;;;2.19;100.00;100871.44;4997398;28;20505;-76
2022/11/20 10:02:55;;;;;;;89.93;28.95;;;;;;;2.23;100.00;100871.13;4979746;28;20054;-76
2022/11/20 10:05:45;;;;;;;74.25;27.35;;;;;;;2.18;100.00;100862.94;4983836;28;20503;-75
2022/11/20 10:08:16;;;;;;;77.68;28.77;;;;;;;2.17;100.00;100863.03;4979171;28;20038;-76
2022/11/20 10:10:45;;;;;;;77.00;26.77;;;;;;;2.16;100.00;100856.28;4987252;28;20050;-76
2022/11/20 10:13:25;;;;;;;75.65;28.45;;;;;;;2.20;100.00;100855.16;5005269;28;20112;-75
2022/11/20 10:16:09;;;;;;;75.55;28.48;;;;;;;2.23;100.00;100852.41;4984560;28;20137;-75
2022/11/20 10:18:56;;;;;;;73.82;27.85;;;;;;;2.41;100.00;100837.56;4997022;28;20386;-75
2022/11/20 10:21:35;;;;;;;77.05;29.25;;;;;;;2.50;100.00;100836.97;4982458;28;20097;-76
2022/11/20 10:24:38;;;;;;;68.53;26.85;;;;;;;2.58;100.00;100821.91;4984719;28;20113;-75
2022/11/20 10:27:29;;;;;;;72.10;28.90;;;;;;;2.73;100.00;100823.44;4981652;28;20034;-75
2022/11/20 10:30:10;;;;;;;69.85;29.00;;;;;;;2.77;100.00;100816.38;4969664;28;20046;-75
2022/11/20 10:32:42;;;;;;;68.70;27.20;;;;;;;2.76;100.00;100817.28;4986973;28;20136;-76
2022/11/20 10:35:19;;;;;;;68.80;27.40;;;;;;;2.76;100.00;100812.16;4986723;28;20026;-76
2022/11/20 10:37:49;;;;;;;62.28;25.02;;;;;;;2.69;100.00;100811.78;4972819;28;20699;-76
2022/11/20 10:40:38;;;;;;;63.45;25.02;;;;;;;2.82;100.00;100800.66;4964315;28;20041;-76
2022/11/20 10:43:28;;;;;;;75.13;26.90;;;;;;;2.95;100.00;100800.66;4982284;28;20030;-75
2022/11/20 10:46:01;;;;;;;67.93;25.77;;;;;;;2.83;100.00;100799.75;4958331;28;20773;-76
2022/11/20 10:48:28;;;;;;;67.25;24.42;;;;;;;2.95;100.00;100793.78;4956524;28;20077;-75
2022/11/20 10:50:59;;;;;;;67.85;26.20;;;;;;;2.88;100.00;100780.59;4966076;28;20051;-74
2022/11/20 10:53:40;;;;;;;65.55;26.23;;;;;;;2.97;100.00;100783.44;4980305;28;20049;-75
2022/11/20 10:56:16;;;;;;;67.70;26.08;;;;;;;3.01;100.00;100774.59;4979703;28;20049;-76
2022/11/20 10:58:54;;;;;;;70.03;27.13;;;;;;;3.03;100.00;100775.31;4968584;28;20035;-75
2022/11/20 11:01:25;;;;;;;70.05;27.05;;;;;;;3.06;100.00;100767.41;4979760;28;20146;-75
2022/11/20 11:03:53;;;;;;;56.60;24.58;;;;;;;2.96;100.00;100761.28;4981457;28;20485;-76
2022/11/20 11:06:32;;;;;;;62.83;24.10;;;;;;;2.90;100.00;100762.53;4982103;28;20554;-75
2022/11/20 11:09:03;;;;;;;62.28;26.05;;;;;;;2.84;100.00;100760.41;4997522;28;20038;-76
2022/11/20 11:11:33;;;;;;;62.42;25.33;;;;;;;2.86;100.00;100763.66;4983955;28;20058;-75
2022/11/20 11:14:28;;;;;;;63.85;26.17;;;;;;;2.98;100.00;100747.47;4978964;28;20038;-76
2022/11/20 11:16:56;;;;;;;68.72;24.63;;;;;;;3.09;100.00;100744.97;4979996;28;20046;-76
2022/11/20 11:19:22;;;;;;;64.30;24.52;;;;;;;3.25;100.00;100742.09;4978787;28;20026;-76
2022/11/20 11:21:52;;;;;;;63.47;24.50;;;;;;;3.31;100.00;100733.16;4986518;28;20046;-75